MMZO/ZLO METAR and TAF weather

Enter ICAO airport designator
Station Type Date Time Source
MMZO METAR 2022/06/29 23:40 UTC NOAA

MMZO 292340Z 00000KT 12SM SCT020TCU BKN100 BKN210 32/24 A2991 RMK SLP094 8/236 TCU N


Station Type Date Time Source
MMZO Decoded METAR 2022/06/29 23:40 UTC NOAA

Manzanillo International , Mexico (MMZO) 19-09N 104-34W
Jun 29, 2022 - 07:40 PM EDT / 2022.06.29 2340 UTC
Wind: Calm:0
Visibility: 12 mile(s):0
Sky conditions: mostly cloudy
Weather: Towering cumulus clouds observed
Temperature: 89 F (32 C)
Heat index: 98.4 F (36.9 C):1
Dew Point: 75 F (24 C)
Relative Humidity: 62%
Pressure (altimeter): 29.91 in. Hg (1012 hPa)
ob: MMZO 292340Z 00000KT 12SM SCT020TCU BKN100 BKN210 32/24 A2991 RMK SLP094 8/236 TCU N
cycle: 23

Station Type Date Time Source
MMZO TAF 2022/06/29 18:56 UTC NOAA

TAF MMZO 291649Z 2918/3018 21010KT P6SM SCT020 BKN120 BKN250 PROB40 3000/3004 5SM TSRA BKN020CB
FM301700 22012KT P6SM SCT020 BKN100 BKN250

Example: see airport list